createdAt,value
2022-08-16T00:00:03.296Z,1.90
2022-08-16T00:00:53.789Z,1.80
2022-08-16T00:01:53.810Z,2.10
2022-08-16T00:02:53.734Z,1.70
2022-08-16T00:03:53.772Z,1.70
2022-08-16T00:04:53.720Z,1.70
2022-08-16T00:05:57.599Z,1.70
2022-08-16T00:06:53.699Z,1.60
2022-08-16T00:07:56.491Z,1.70
2022-08-16T00:08:53.686Z,1.90
2022-08-16T00:09:53.671Z,2.00
2022-08-16T00:10:53.680Z,2.50
2022-08-16T00:11:55.519Z,2.10
2022-08-16T00:12:53.652Z,2.40
2022-08-16T00:13:55.687Z,1.70
2022-08-16T00:14:56.391Z,2.30
2022-08-16T00:15:54.077Z,2.30
2022-08-16T00:17:06.715Z,1.70
2022-08-16T00:17:56.732Z,2.30
2022-08-16T00:18:53.584Z,1.90
2022-08-16T00:19:55.055Z,2.50
2022-08-16T00:20:53.580Z,2.70
2022-08-16T00:21:54.475Z,1.90
2022-08-16T00:22:53.542Z,2.30
2022-08-16T00:23:53.538Z,1.90
2022-08-16T00:24:53.526Z,1.80
2022-08-16T00:26:35.308Z,2.00
2022-08-16T00:26:53.511Z,2.00
2022-08-16T00:27:53.494Z,2.10
2022-08-16T00:28:54.854Z,1.70
2022-08-16T00:30:00.744Z,2.00
2022-08-16T00:30:53.494Z,2.00
2022-08-16T00:32:01.093Z,2.20
2022-08-16T00:32:53.451Z,1.80
2022-08-16T00:33:53.442Z,2.00
2022-08-16T00:34:54.292Z,2.00
2022-08-16T00:35:53.417Z,2.30
2022-08-16T00:36:55.938Z,1.90
2022-08-16T00:37:56.607Z,1.60
2022-08-16T00:38:53.390Z,2.10
2022-08-16T00:39:58.093Z,2.60
2022-08-16T00:40:53.810Z,1.70
2022-08-16T00:41:53.380Z,2.20
2022-08-16T00:42:54.915Z,1.90
2022-08-16T00:43:53.340Z,1.80
2022-08-16T00:44:53.329Z,1.90
2022-08-16T00:45:57.990Z,2.10
2022-08-16T00:47:02.392Z,2.10
2022-08-16T00:47:53.313Z,1.70
2022-08-16T00:48:53.294Z,2.00
2022-08-16T00:49:56.232Z,1.70
2022-08-16T00:50:55.305Z,1.80
2022-08-16T00:51:55.145Z,2.30
2022-08-16T00:52:53.457Z,2.10
2022-08-16T00:53:53.243Z,2.40
2022-08-16T00:54:53.230Z,2.30
2022-08-16T00:55:53.250Z,1.90
2022-08-16T00:56:57.573Z,2.20
2022-08-16T00:57:58.927Z,2.00
2022-08-16T00:58:53.199Z,1.90
2022-08-16T00:59:58.996Z,1.80
2022-08-16T01:00:53.818Z,2.20
2022-08-16T01:01:53.187Z,1.80
2022-08-16T01:02:53.160Z,1.90
2022-08-16T01:03:53.148Z,1.70
2022-08-16T01:05:09.347Z,2.00
2022-08-16T01:05:53.133Z,2.00
2022-08-16T01:07:01.652Z,1.90
2022-08-16T01:07:53.533Z,2.50
2022-08-16T01:08:53.100Z,2.30
2022-08-16T01:09:53.092Z,2.20
2022-08-16T01:10:53.076Z,1.80
2022-08-16T01:11:55.003Z,1.70
2022-08-16T01:12:53.056Z,1.80
2022-08-16T01:13:53.197Z,2.20
2022-08-16T01:14:53.287Z,2.40
2022-08-16T01:15:53.623Z,2.00
2022-08-16T01:16:53.034Z,2.20
2022-08-16T01:17:55.997Z,2.10
2022-08-16T01:18:53.008Z,1.90
2022-08-16T01:19:52.995Z,2.20
2022-08-16T01:20:52.989Z,1.90
2022-08-16T01:21:52.992Z,1.60
2022-08-16T01:22:52.967Z,1.80
2022-08-16T01:23:57.995Z,2.30
2022-08-16T01:24:55.491Z,2.50
2022-08-16T01:26:00.170Z,2.00
2022-08-16T01:26:52.941Z,2.00
2022-08-16T01:27:52.911Z,2.10
2022-08-16T01:28:52.898Z,1.90
2022-08-16T01:29:58.590Z,1.70
2022-08-16T01:30:52.883Z,1.60
2022-08-16T01:31:57.674Z,1.70
2022-08-16T01:33:01.202Z,2.20
2022-08-16T01:33:52.862Z,2.70
2022-08-16T01:34:53.666Z,1.80
2022-08-16T01:35:53.217Z,1.80
2022-08-16T01:36:55.088Z,2.40
2022-08-16T01:37:54.132Z,1.90
2022-08-16T01:38:57.073Z,2.00
2022-08-16T01:39:52.986Z,2.10
2022-08-16T01:40:52.787Z,2.20
2022-08-16T01:41:52.777Z,2.40
2022-08-16T01:42:53.891Z,2.00
2022-08-16T01:43:54.316Z,2.20
2022-08-16T01:44:52.745Z,2.40
2022-08-16T01:45:57.573Z,2.00
2022-08-16T01:46:52.749Z,2.00
2022-08-16T01:47:52.722Z,1.80
2022-08-16T01:48:52.710Z,2.50
2022-08-16T01:50:43.473Z,2.00
2022-08-16T01:51:16.701Z,2.20
2022-08-16T01:51:52.753Z,2.40
2022-08-16T01:52:52.668Z,2.10
2022-08-16T01:53:54.544Z,2.60
2022-08-16T01:54:53.500Z,2.20
2022-08-16T01:55:53.715Z,2.80
2022-08-16T01:56:52.639Z,2.20
2022-08-16T01:57:53.317Z,2.60
2022-08-16T01:58:52.600Z,2.50
2022-08-16T01:59:54.802Z,2.10
2022-08-16T02:00:52.585Z,2.00
2022-08-16T02:01:59.707Z,2.50
2022-08-16T02:02:52.613Z,2.00
2022-08-16T02:03:52.567Z,2.10
2022-08-16T02:04:54.728Z,2.20
2022-08-16T02:05:52.541Z,2.50
2022-08-16T02:06:52.586Z,2.40
2022-08-16T02:07:53.579Z,2.40
2022-08-16T02:08:52.520Z,2.60
2022-08-16T02:09:57.243Z,2.30
2022-08-16T02:10:52.497Z,2.00
2022-08-16T02:11:52.879Z,2.40
2022-08-16T02:12:55.755Z,2.50
2022-08-16T02:13:54.828Z,1.70
2022-08-16T02:14:52.455Z,2.00
2022-08-16T02:15:52.445Z,1.70
2022-08-16T02:16:52.448Z,1.80
2022-08-16T02:17:52.541Z,2.40
2022-08-16T02:18:52.414Z,2.40
2022-08-16T02:19:58.525Z,2.50
2022-08-16T02:20:53.519Z,2.50
2022-08-16T02:22:07.641Z,2.30
2022-08-16T02:22:52.386Z,1.90
2022-08-16T02:23:55.598Z,2.50
2022-08-16T02:24:52.355Z,2.30
2022-08-16T02:25:54.097Z,2.00
2022-08-16T02:26:52.350Z,1.80
2022-08-16T02:27:52.343Z,2.50
2022-08-16T02:28:52.719Z,2.20
2022-08-16T02:29:52.310Z,2.10
2022-08-16T02:30:52.416Z,1.90
2022-08-16T02:32:03.542Z,2.30
2022-08-16T02:32:54.097Z,2.20
2022-08-16T02:33:52.276Z,2.20
2022-08-16T02:34:52.263Z,2.20
2022-08-16T02:35:55.359Z,2.10
2022-08-16T02:36:52.240Z,1.90
2022-08-16T02:37:53.272Z,2.60
2022-08-16T02:38:52.225Z,2.60
2022-08-16T02:39:54.157Z,3.10
2022-08-16T02:40:54.395Z,2.30
2022-08-16T02:41:53.166Z,1.80
2022-08-16T02:42:52.429Z,2.20
2022-08-16T02:43:52.168Z,2.30
2022-08-16T02:44:52.166Z,2.30
2022-08-16T02:45:52.151Z,2.00
2022-08-16T02:46:53.893Z,2.10
2022-08-16T02:48:00.518Z,2.10
2022-08-16T02:48:52.133Z,2.20
2022-08-16T02:49:59.168Z,2.10
2022-08-16T02:51:06.977Z,2.60
2022-08-16T02:51:52.098Z,2.40
2022-08-16T02:52:52.101Z,2.30
2022-08-16T02:53:52.068Z,2.50
2022-08-16T02:54:55.209Z,2.30
2022-08-16T02:55:52.050Z,2.20
2022-08-16T02:56:52.053Z,2.20
2022-08-16T02:57:54.549Z,2.40
2022-08-16T02:58:52.027Z,2.30
2022-08-16T02:59:52.006Z,2.00
2022-08-16T03:00:52.043Z,2.20
2022-08-16T03:01:52.010Z,2.20
2022-08-16T03:02:55.695Z,2.00
2022-08-16T03:04:39.425Z,2.10
2022-08-16T03:04:56.416Z,2.10
2022-08-16T03:05:52.459Z,2.40
2022-08-16T03:06:56.524Z,2.30
2022-08-16T03:07:51.957Z,2.10
2022-08-16T03:08:53.261Z,2.30
2022-08-16T03:09:51.909Z,2.00
2022-08-16T03:10:51.905Z,2.40
2022-08-16T03:11:51.893Z,2.10
2022-08-16T03:12:55.949Z,2.40
2022-08-16T03:13:53.050Z,2.00
2022-08-16T03:14:51.866Z,2.10
2022-08-16T03:15:51.861Z,1.80
2022-08-16T03:16:59.343Z,1.80
2022-08-16T03:17:53.758Z,2.20
2022-08-16T03:18:51.835Z,2.10
2022-08-16T03:19:59.849Z,2.00
2022-08-16T03:20:55.732Z,2.60
2022-08-16T03:21:51.951Z,2.30
2022-08-16T03:22:51.816Z,2.20
2022-08-16T03:23:51.778Z,2.10
2022-08-16T03:24:51.768Z,2.30
2022-08-16T03:25:51.760Z,2.40
2022-08-16T03:26:51.753Z,2.10
2022-08-16T03:27:51.754Z,1.90
2022-08-16T03:28:51.736Z,2.20
2022-08-16T03:29:54.694Z,2.20
2022-08-16T03:30:51.711Z,2.20
2022-08-16T03:31:51.700Z,2.10
2022-08-16T03:32:52.132Z,2.30
2022-08-16T03:33:52.131Z,2.20
2022-08-16T03:34:51.678Z,2.30
2022-08-16T03:35:56.928Z,2.30
2022-08-16T03:36:51.663Z,2.30
2022-08-16T03:38:02.861Z,2.80
2022-08-16T03:38:51.646Z,2.10
2022-08-16T03:39:56.468Z,2.50
2022-08-16T03:40:51.629Z,2.00
2022-08-16T03:41:59.322Z,2.40
2022-08-16T03:43:18.994Z,2.10
2022-08-16T03:43:52.516Z,2.10
2022-08-16T03:44:51.582Z,2.10
2022-08-16T03:45:52.337Z,2.30
2022-08-16T03:46:51.553Z,2.30
2022-08-16T03:47:51.571Z,1.90
2022-08-16T03:48:51.543Z,2.10
2022-08-16T03:49:52.398Z,2.60
2022-08-16T03:50:59.780Z,3.00
2022-08-16T03:51:52.037Z,2.40
2022-08-16T03:52:51.512Z,2.30
2022-08-16T03:53:57.760Z,2.80
2022-08-16T03:54:53.663Z,2.50
2022-08-16T03:55:51.484Z,2.10
2022-08-16T03:56:57.734Z,2.60
2022-08-16T03:57:52.437Z,2.40
2022-08-16T03:58:52.654Z,2.70
2022-08-16T03:59:51.442Z,2.20
2022-08-16T04:00:59.262Z,2.80
2022-08-16T04:01:53.637Z,2.70
2022-08-16T04:02:51.422Z,2.00
2022-08-16T04:03:51.391Z,2.70
2022-08-16T04:04:51.391Z,2.30
2022-08-16T04:05:51.369Z,2.10
2022-08-16T04:06:51.363Z,2.00
2022-08-16T04:07:51.365Z,2.10
2022-08-16T04:08:51.352Z,2.40
2022-08-16T04:09:51.332Z,2.50
2022-08-16T04:10:51.830Z,2.60
2022-08-16T04:11:51.324Z,2.80
2022-08-16T04:12:53.626Z,2.50
2022-08-16T04:14:00.745Z,3.00
2022-08-16T04:14:51.309Z,2.40
2022-08-16T04:15:52.790Z,2.40
2022-08-16T04:16:51.275Z,2.40
2022-08-16T04:17:51.270Z,2.30
2022-08-16T04:18:51.253Z,2.50
2022-08-16T04:19:51.649Z,2.60
2022-08-16T04:20:51.230Z,2.40
2022-08-16T04:21:51.221Z,2.40
2022-08-16T04:22:51.237Z,2.20
2022-08-16T04:23:51.193Z,2.50
2022-08-16T04:24:54.429Z,2.50
2022-08-16T04:25:51.183Z,2.80
2022-08-16T04:26:51.177Z,2.90
2022-08-16T04:27:56.106Z,2.40
2022-08-16T04:28:54.656Z,2.30
2022-08-16T04:29:52.201Z,2.50
2022-08-16T04:30:51.135Z,2.60
2022-08-16T04:31:56.714Z,2.40
2022-08-16T04:32:51.270Z,2.40
2022-08-16T04:33:51.584Z,2.80
2022-08-16T04:34:51.127Z,2.50
2022-08-16T04:35:51.072Z,2.40
2022-08-16T04:36:51.076Z,2.20
2022-08-16T04:37:53.853Z,2.90
2022-08-16T04:38:52.537Z,2.50
2022-08-16T04:39:55.195Z,3.10
2022-08-16T04:40:51.078Z,2.70
2022-08-16T04:41:51.018Z,2.50
2022-08-16T04:42:51.214Z,2.60
2022-08-16T04:43:51.015Z,3.00
2022-08-16T04:44:54.397Z,2.70
2022-08-16T04:46:00.271Z,3.60
2022-08-16T04:47:02.749Z,2.90
2022-08-16T04:47:56.278Z,3.00
2022-08-16T04:48:50.991Z,3.40
2022-08-16T04:49:50.937Z,2.60
2022-08-16T04:50:50.937Z,2.60
2022-08-16T04:51:53.798Z,2.70
2022-08-16T04:52:50.915Z,2.70
2022-08-16T04:53:51.908Z,3.30
2022-08-16T04:54:50.893Z,2.90
2022-08-16T04:55:53.299Z,2.90
2022-08-16T04:56:50.879Z,3.10
2022-08-16T04:57:53.347Z,3.00
2022-08-16T04:58:50.873Z,2.80
2022-08-16T04:59:50.837Z,2.70
2022-08-16T05:00:50.842Z,3.60
2022-08-16T05:01:58.936Z,3.20
2022-08-16T05:02:50.827Z,3.40
2022-08-16T05:04:00.557Z,3.30
2022-08-16T05:04:50.803Z,2.80
2022-08-16T05:05:59.086Z,2.60
2022-08-16T05:06:50.791Z,3.30
2022-08-16T05:07:58.168Z,3.00
2022-08-16T05:08:50.779Z,2.80
2022-08-16T05:09:50.755Z,3.40
2022-08-16T05:10:50.743Z,3.10
2022-08-16T05:11:50.726Z,2.80
2022-08-16T05:12:50.725Z,3.20
2022-08-16T05:13:50.771Z,3.20
2022-08-16T05:15:01.675Z,2.80
2022-08-16T05:15:50.724Z,3.20
2022-08-16T05:16:52.136Z,2.80
2022-08-16T05:17:58.915Z,3.10
2022-08-16T05:18:50.691Z,3.10
2022-08-16T05:19:57.741Z,3.20
2022-08-16T05:21:01.395Z,2.90
2022-08-16T05:22:44.556Z,2.80
2022-08-16T05:23:46.582Z,3.00
2022-08-16T05:24:42.567Z,2.80
2022-08-16T05:25:48.188Z,2.90
2022-08-16T05:26:43.501Z,2.80
2022-08-16T05:27:43.135Z,3.40
2022-08-16T05:28:42.533Z,2.70
2022-08-16T05:30:00.165Z,3.00
2022-08-16T05:30:43.199Z,3.40
2022-08-16T05:31:47.891Z,3.10
2022-08-16T05:32:47.339Z,3.10
2022-08-16T05:33:42.501Z,3.30
2022-08-16T05:34:42.459Z,2.90
2022-08-16T05:35:42.444Z,2.90
2022-08-16T05:36:44.089Z,3.50
2022-08-16T05:37:42.419Z,2.70
2022-08-16T05:38:42.436Z,3.20
2022-08-16T05:39:42.460Z,3.10
2022-08-16T05:40:42.419Z,3.20
2022-08-16T05:41:45.083Z,2.80
2022-08-16T05:42:46.115Z,3.00
2022-08-16T05:43:46.398Z,2.80
2022-08-16T05:44:42.358Z,3.10
2022-08-16T05:45:42.867Z,3.00
2022-08-16T05:46:43.721Z,3.40
2022-08-16T05:47:43.129Z,2.90
2022-08-16T05:48:42.333Z,3.30
2022-08-16T05:49:42.304Z,2.60
2022-08-16T05:50:42.300Z,3.40
2022-08-16T05:51:42.334Z,2.90
2022-08-16T05:52:44.854Z,2.90
2022-08-16T05:53:42.293Z,2.90
2022-08-16T05:54:46.676Z,3.20
2022-08-16T05:55:42.251Z,3.20
2022-08-16T05:56:43.013Z,3.00
2022-08-16T05:57:42.225Z,2.90
2022-08-16T05:58:42.241Z,2.90
2022-08-16T05:59:42.205Z,2.90
2022-08-16T06:00:42.203Z,3.40
2022-08-16T06:01:42.203Z,2.80
2022-08-16T06:02:42.181Z,2.90
2022-08-16T06:03:42.184Z,3.30
2022-08-16T06:04:45.103Z,3.20
2022-08-16T06:05:42.205Z,3.00
2022-08-16T06:06:55.693Z,2.80
2022-08-16T06:07:42.130Z,3.00
2022-08-16T06:08:46.482Z,2.70
2022-08-16T06:09:44.049Z,3.00
2022-08-16T06:11:09.816Z,2.90
2022-08-16T06:11:43.151Z,2.90
2022-08-16T06:12:42.083Z,2.90
2022-08-16T06:13:42.484Z,3.00
2022-08-16T06:14:42.062Z,3.10
2022-08-16T06:15:42.060Z,3.30
2022-08-16T06:16:42.046Z,3.50
2022-08-16T06:17:43.561Z,2.80
2022-08-16T06:18:42.044Z,3.60
2022-08-16T06:19:44.693Z,2.80
2022-08-16T06:20:55.419Z,2.80
2022-08-16T06:21:41.994Z,2.60
2022-08-16T06:22:44.623Z,2.80
2022-08-16T06:23:41.987Z,3.00
2022-08-16T06:24:54.376Z,2.50
2022-08-16T06:25:41.957Z,2.80
2022-08-16T06:26:57.504Z,2.60
2022-08-16T06:27:41.942Z,2.60
2022-08-16T06:28:41.951Z,2.80
2022-08-16T06:29:41.910Z,2.60
2022-08-16T06:30:43.624Z,2.90
2022-08-16T06:31:49.248Z,3.10
2022-08-16T06:32:42.979Z,3.00
2022-08-16T06:33:42.421Z,2.80
2022-08-16T06:34:57.394Z,2.50
2022-08-16T06:35:41.889Z,2.90
2022-08-16T06:36:41.841Z,3.20
2022-08-16T06:37:45.771Z,3.00
2022-08-16T06:38:55.486Z,2.90
2022-08-16T06:39:49.954Z,2.80
2022-08-16T06:40:41.852Z,2.60
2022-08-16T06:41:41.794Z,2.40
2022-08-16T06:42:47.575Z,2.70
2022-08-16T06:43:41.800Z,2.70
2022-08-16T06:44:42.182Z,3.00
2022-08-16T06:45:43.411Z,3.00
2022-08-16T06:46:41.762Z,2.40
2022-08-16T06:47:53.144Z,2.80
2022-08-16T06:48:43.188Z,2.80
2022-08-16T06:49:41.714Z,3.00
2022-08-16T06:50:41.719Z,3.00
2022-08-16T06:51:45.967Z,2.60
2022-08-16T06:53:00.223Z,2.60
2022-08-16T06:53:41.688Z,2.60
2022-08-16T06:54:41.659Z,2.40
2022-08-16T06:55:41.654Z,3.00
2022-08-16T06:56:41.648Z,2.60
2022-08-16T06:57:41.631Z,2.80
2022-08-16T06:58:41.640Z,2.40
2022-08-16T06:59:48.493Z,2.50
2022-08-16T07:00:43.192Z,2.30
2022-08-16T07:01:46.091Z,2.40
2022-08-16T07:02:51.435Z,2.60
2022-08-16T07:03:55.328Z,2.40
2022-08-16T07:04:41.571Z,2.50
2022-08-16T07:05:42.021Z,2.30
2022-08-16T07:06:42.360Z,2.80
2022-08-16T07:07:41.526Z,2.40
2022-08-16T07:08:41.533Z,2.50
2022-08-16T07:09:41.646Z,2.60
2022-08-16T07:10:41.811Z,2.30
2022-08-16T07:11:47.477Z,2.40
2022-08-16T07:12:47.539Z,2.20
2022-08-16T07:14:03.611Z,2.20
2022-08-16T07:14:41.468Z,2.40
2022-08-16T07:15:50.032Z,2.50
2022-08-16T07:16:41.445Z,2.40
2022-08-16T07:17:41.426Z,2.40
2022-08-16T07:18:59.341Z,2.40
2022-08-16T07:20:03.131Z,2.30
2022-08-16T07:20:48.165Z,2.40
2022-08-16T07:21:46.682Z,2.30
2022-08-16T07:22:41.384Z,2.20
2022-08-16T07:23:41.377Z,2.00
2022-08-16T07:24:45.939Z,2.50
2022-08-16T07:25:41.348Z,2.30
2022-08-16T07:26:41.336Z,2.40
2022-08-16T07:27:41.330Z,2.30
2022-08-16T07:28:41.334Z,2.20
2022-08-16T07:29:41.300Z,2.50
2022-08-16T07:30:46.651Z,2.40
2022-08-16T07:31:41.287Z,2.10
2022-08-16T07:32:41.298Z,2.00
2022-08-16T07:33:41.324Z,2.60
2022-08-16T07:34:48.618Z,2.20
2022-08-16T07:35:44.231Z,2.10
2022-08-16T07:36:41.236Z,1.90
2022-08-16T07:37:41.221Z,2.20
2022-08-16T07:38:41.230Z,1.90
2022-08-16T07:39:43.208Z,2.60
2022-08-16T07:40:59.507Z,2.40
2022-08-16T07:41:41.185Z,2.30
2022-08-16T07:42:41.175Z,2.20
2022-08-16T07:43:48.190Z,2.40
2022-08-16T07:44:49.329Z,1.90
2022-08-16T07:45:42.240Z,2.10
2022-08-16T07:46:41.141Z,2.30
2022-08-16T07:47:42.044Z,2.10
2022-08-16T07:48:41.127Z,2.20
2022-08-16T07:49:49.856Z,2.30
2022-08-16T07:50:56.829Z,2.20
2022-08-16T07:51:41.089Z,2.20
2022-08-16T07:52:41.113Z,2.30
2022-08-16T07:53:43.381Z,2.00
2022-08-16T07:54:45.739Z,2.20
2022-08-16T07:55:45.693Z,2.40
2022-08-16T07:56:41.042Z,2.10
2022-08-16T07:57:55.859Z,2.10
2022-08-16T07:58:41.045Z,2.10
2022-08-16T07:59:46.229Z,2.40
2022-08-16T08:00:41.064Z,2.30
2022-08-16T08:01:40.987Z,2.10
2022-08-16T08:02:40.986Z,2.30
2022-08-16T08:03:44.956Z,2.30
2022-08-16T08:04:40.959Z,2.50
2022-08-16T08:05:40.943Z,2.10
2022-08-16T08:06:40.943Z,2.20
2022-08-16T08:07:45.337Z,2.30
2022-08-16T08:08:50.959Z,2.10
2022-08-16T08:09:43.371Z,2.10
2022-08-16T08:10:40.897Z,2.00
2022-08-16T08:11:40.889Z,2.00
2022-08-16T08:12:40.896Z,2.20
2022-08-16T08:13:42.465Z,2.10
2022-08-16T08:14:40.863Z,2.30
2022-08-16T08:15:40.851Z,1.90
2022-08-16T08:16:45.479Z,2.10
2022-08-16T08:17:42.991Z,2.60
2022-08-16T08:18:40.837Z,2.50
2022-08-16T08:19:40.808Z,2.40
2022-08-16T08:20:40.800Z,2.30
2022-08-16T08:22:00.848Z,2.60
2022-08-16T08:22:40.811Z,2.40
2022-08-16T08:23:42.570Z,2.40
2022-08-16T08:24:44.028Z,2.60
2022-08-16T08:25:53.748Z,2.30
2022-08-16T08:26:40.746Z,2.50
2022-08-16T08:27:40.730Z,2.20
2022-08-16T08:28:40.735Z,2.50
2022-08-16T08:29:40.802Z,2.40
2022-08-16T08:30:51.296Z,2.90
2022-08-16T08:31:40.696Z,2.90
2022-08-16T08:33:00.306Z,2.30
2022-08-16T08:33:43.818Z,2.30
2022-08-16T08:34:40.668Z,2.40
2022-08-16T08:35:40.661Z,2.40
2022-08-16T08:36:40.648Z,2.40
2022-08-16T08:37:55.783Z,2.30
2022-08-16T08:38:45.916Z,2.30
2022-08-16T08:39:55.292Z,2.20
2022-08-16T08:40:40.613Z,2.10
2022-08-16T08:41:40.597Z,2.70
2022-08-16T08:42:40.656Z,2.40
2022-08-16T08:43:41.916Z,2.30
2022-08-16T08:44:40.560Z,2.40
2022-08-16T08:45:47.243Z,2.90
2022-08-16T08:46:40.545Z,2.20
2022-08-16T08:47:40.535Z,2.30
2022-08-16T08:48:43.828Z,2.10
2022-08-16T08:49:50.393Z,2.10
2022-08-16T08:50:40.540Z,2.20
2022-08-16T08:51:41.228Z,2.30
2022-08-16T08:52:40.727Z,1.90
2022-08-16T08:53:40.503Z,2.00
2022-08-16T08:54:40.464Z,1.90
2022-08-16T08:55:40.455Z,2.20
2022-08-16T08:56:45.812Z,2.30
2022-08-16T08:57:40.718Z,2.00
2022-08-16T08:58:40.439Z,2.30
2022-08-16T08:59:40.823Z,1.80
2022-08-16T09:00:50.251Z,1.90
2022-08-16T09:01:42.607Z,2.00
2022-08-16T09:02:40.398Z,1.70
2022-08-16T09:03:40.445Z,1.70
2022-08-16T09:04:40.364Z,2.10
2022-08-16T09:05:40.356Z,1.80
2022-08-16T09:06:43.243Z,1.70
2022-08-16T09:08:00.271Z,1.90
2022-08-16T09:08:40.342Z,1.80
2022-08-16T09:09:41.283Z,1.70
2022-08-16T09:10:40.892Z,1.90
2022-08-16T09:11:41.054Z,1.80
2022-08-16T09:12:40.299Z,2.20
2022-08-16T09:13:47.172Z,1.60
2022-08-16T09:14:49.571Z,2.30
2022-08-16T09:15:40.263Z,2.00
2022-08-16T09:17:02.309Z,2.00
2022-08-16T09:17:51.380Z,1.70
2022-08-16T09:18:40.276Z,1.70
2022-08-16T09:19:40.818Z,1.50
2022-08-16T09:20:59.293Z,1.70
2022-08-16T09:21:40.203Z,1.70
2022-08-16T09:22:40.186Z,1.90
2022-08-16T09:23:40.194Z,1.70
2022-08-16T09:24:52.735Z,1.50
2022-08-16T09:25:40.169Z,1.90
2022-08-16T09:26:44.183Z,1.70
2022-08-16T09:27:56.590Z,1.70
2022-08-16T09:29:15.221Z,1.80
2022-08-16T09:29:45.209Z,1.60
2022-08-16T09:30:44.417Z,1.50
2022-08-16T09:31:41.359Z,1.70
2022-08-16T09:32:40.088Z,1.80
2022-08-16T09:33:40.103Z,2.00
2022-08-16T09:34:40.070Z,2.00
2022-08-16T09:35:42.560Z,1.70
2022-08-16T09:36:46.184Z,1.90
2022-08-16T09:37:40.047Z,1.70
2022-08-16T09:38:40.938Z,1.40
2022-08-16T09:39:41.602Z,1.70
2022-08-16T09:40:42.718Z,1.80
2022-08-16T09:41:40.006Z,1.60
2022-08-16T09:42:55.972Z,1.80
2022-08-16T09:44:00.346Z,1.60
2022-08-16T09:45:09.121Z,1.70
2022-08-16T09:45:39.968Z,1.60
2022-08-16T09:46:48.728Z,2.10
2022-08-16T09:47:56.328Z,1.80
2022-08-16T09:48:44.802Z,1.80
2022-08-16T09:49:40.981Z,1.90
2022-08-16T09:50:39.997Z,1.90
2022-08-16T09:51:39.901Z,1.70
2022-08-16T09:52:44.090Z,1.70
2022-08-16T09:53:39.923Z,1.80
2022-08-16T09:54:39.863Z,1.80
2022-08-16T09:55:44.273Z,1.70
2022-08-16T09:56:52.835Z,1.80
2022-08-16T09:57:39.851Z,1.50
2022-08-16T09:59:05.562Z,2.00
2022-08-16T09:59:41.861Z,1.80
2022-08-16T10:00:45.453Z,2.00
2022-08-16T10:01:43.550Z,1.70
2022-08-16T10:02:44.318Z,1.50
2022-08-16T10:04:02.082Z,1.60
2022-08-16T10:04:52.858Z,1.70
2022-08-16T10:05:39.765Z,1.80
2022-08-16T10:06:39.746Z,2.10
2022-08-16T10:07:55.933Z,1.90
2022-08-16T10:08:52.603Z,2.20
2022-08-16T10:09:54.259Z,1.80
2022-08-16T10:10:39.716Z,2.00
2022-08-16T10:11:50.485Z,1.60
2022-08-16T10:12:42.542Z,1.90
2022-08-16T10:13:39.702Z,1.90
2022-08-16T10:14:39.693Z,2.00
2022-08-16T10:15:39.664Z,2.40
2022-08-16T10:16:39.647Z,1.90
2022-08-16T10:17:39.650Z,1.80
2022-08-16T10:19:00.945Z,2.00
2022-08-16T10:19:39.629Z,2.00
2022-08-16T10:20:39.608Z,2.00
2022-08-16T10:21:39.601Z,2.10
2022-08-16T10:22:39.587Z,1.80
2022-08-16T10:23:39.601Z,1.60
2022-08-16T10:24:39.568Z,2.20
2022-08-16T10:27:18.287Z,1.70
2022-08-16T10:27:47.342Z,2.10
2022-08-16T10:28:01.230Z,2.00
2022-08-16T10:28:42.080Z,1.80
2022-08-16T10:29:59.910Z,2.00
2022-08-16T10:30:40.144Z,2.20
2022-08-16T10:31:45.706Z,1.90
2022-08-16T10:32:39.545Z,2.10
2022-08-16T10:33:40.282Z,1.80
2022-08-16T10:34:39.480Z,1.90
2022-08-16T10:35:46.565Z,1.60
2022-08-16T10:36:39.896Z,1.80
2022-08-16T10:37:39.445Z,2.30
2022-08-16T10:38:39.469Z,2.30
2022-08-16T10:39:41.652Z,2.10
2022-08-16T10:40:39.461Z,1.70
2022-08-16T10:41:39.405Z,1.90
2022-08-16T10:42:39.385Z,1.80
2022-08-16T10:43:39.396Z,2.00
2022-08-16T10:44:39.360Z,2.10
2022-08-16T10:45:39.361Z,2.10
2022-08-16T10:46:41.963Z,2.30
2022-08-16T10:47:39.338Z,1.80
2022-08-16T10:48:39.349Z,1.90
2022-08-16T10:49:39.320Z,1.70
2022-08-16T10:50:39.303Z,1.90
2022-08-16T10:52:01.603Z,1.80
2022-08-16T10:53:39.664Z,1.80
2022-08-16T10:54:58.586Z,2.30
2022-08-16T10:55:40.740Z,2.10
2022-08-16T10:56:55.484Z,1.90
2022-08-16T10:57:39.249Z,1.90
2022-08-16T10:58:39.236Z,1.60
2022-08-16T10:59:51.709Z,1.80
2022-08-16T11:00:39.207Z,1.90
2022-08-16T11:01:43.065Z,1.80
2022-08-16T11:02:58.362Z,1.90
2022-08-16T11:03:42.981Z,2.20
2022-08-16T11:05:10.481Z,2.30
2022-08-16T11:06:39.338Z,1.80
2022-08-16T11:07:43.451Z,1.80
2022-08-16T11:08:44.793Z,1.80
2022-08-16T11:09:44.187Z,2.00
2022-08-16T11:12:13.295Z,1.80
2022-08-16T11:12:39.092Z,2.10
2022-08-16T11:14:39.113Z,1.70
2022-08-16T11:15:39.053Z,1.70
2022-08-16T11:17:39.039Z,1.60
2022-08-16T11:19:03.183Z,1.80
2022-08-16T11:20:41.585Z,1.90
2022-08-16T11:22:23.240Z,2.10
2022-08-16T11:22:48.432Z,2.20
2022-08-16T11:23:38.986Z,1.90
2022-08-16T11:24:41.256Z,2.20
2022-08-16T11:26:38.947Z,1.70
2022-08-16T11:27:38.939Z,2.10
2022-08-16T11:29:38.936Z,1.90
2022-08-16T11:30:39.617Z,2.00
2022-08-16T11:31:38.893Z,1.80
2022-08-16T11:32:38.880Z,1.70
2022-08-16T11:33:55.190Z,1.80
2022-08-16T11:35:03.833Z,2.00
2022-08-16T11:36:22.562Z,2.20
2022-08-16T11:36:38.850Z,1.80
2022-08-16T11:38:51.846Z,2.30
2022-08-16T11:39:38.853Z,2.00
2022-08-16T11:40:40.662Z,1.70
2022-08-16T11:41:38.800Z,1.80
2022-08-16T11:42:38.773Z,1.80
2022-08-16T11:43:38.770Z,1.90
2022-08-16T11:44:52.761Z,1.90
2022-08-16T11:45:38.751Z,1.90
2022-08-16T11:46:44.425Z,2.10
2022-08-16T11:47:38.731Z,1.70
2022-08-16T11:48:38.711Z,2.20
2022-08-16T11:49:38.730Z,1.80
2022-08-16T11:50:38.692Z,1.70
2022-08-16T11:51:38.686Z,2.00
2022-08-16T11:52:38.695Z,1.90
2022-08-16T11:53:38.665Z,1.80
2022-08-16T11:54:38.672Z,1.70
2022-08-16T11:55:38.650Z,2.10
2022-08-16T11:56:51.541Z,1.80
2022-08-16T11:57:38.628Z,2.00
2022-08-16T11:58:38.614Z,1.80
2022-08-16T11:59:39.756Z,2.00
2022-08-16T12:00:51.804Z,1.90
2022-08-16T12:01:44.357Z,1.80
2022-08-16T12:02:38.583Z,1.90
2022-08-16T12:03:38.630Z,2.10
2022-08-16T12:04:38.671Z,2.00
2022-08-16T12:05:38.546Z,1.70
2022-08-16T12:06:38.533Z,2.00
2022-08-16T12:07:38.523Z,1.70
2022-08-16T12:08:38.511Z,1.90
2022-08-16T12:09:42.779Z,1.80
2022-08-16T12:10:38.558Z,1.70
2022-08-16T12:11:38.479Z,1.90
2022-08-16T12:12:38.471Z,1.60
2022-08-16T12:13:38.466Z,1.90
2022-08-16T12:14:38.464Z,2.00
2022-08-16T12:15:38.439Z,1.70
2022-08-16T12:16:38.432Z,1.90
2022-08-16T12:17:38.424Z,2.10
2022-08-16T12:18:38.415Z,2.00
2022-08-16T12:19:38.421Z,1.70
2022-08-16T12:20:38.517Z,1.90
2022-08-16T12:21:59.224Z,1.50
2022-08-16T12:22:38.377Z,2.00
2022-08-16T12:23:38.374Z,1.50
2022-08-16T12:24:38.366Z,2.10
2022-08-16T12:25:38.344Z,1.70
2022-08-16T12:26:38.326Z,1.90
2022-08-16T12:27:39.276Z,1.80
2022-08-16T12:28:54.546Z,1.70
2022-08-16T12:29:38.306Z,1.80
2022-08-16T12:30:39.031Z,1.90
2022-08-16T12:31:38.280Z,1.60
2022-08-16T12:32:41.727Z,1.80
2022-08-16T12:33:44.436Z,2.00
2022-08-16T12:34:38.277Z,1.80
2022-08-16T12:35:38.242Z,1.60
2022-08-16T12:36:38.225Z,1.70
2022-08-16T12:37:38.922Z,1.80
2022-08-16T12:38:46.729Z,1.90
2022-08-16T12:39:38.281Z,1.90
2022-08-16T12:40:38.212Z,1.80
2022-08-16T12:41:38.194Z,1.80
2022-08-16T12:42:38.200Z,1.80
2022-08-16T12:43:40.350Z,1.70
2022-08-16T12:44:38.179Z,1.80
2022-08-16T12:45:38.156Z,2.00
2022-08-16T12:46:38.129Z,1.70
2022-08-16T12:47:38.120Z,1.70
2022-08-16T12:48:38.117Z,2.10
2022-08-16T12:49:41.718Z,2.00
2022-08-16T12:50:38.097Z,2.00
2022-08-16T12:51:59.577Z,1.60
2022-08-16T12:52:44.444Z,1.90
2022-08-16T12:53:40.029Z,1.80
2022-08-16T12:54:38.062Z,1.70
2022-08-16T12:55:42.064Z,2.10
2022-08-16T12:56:38.038Z,1.70
2022-08-16T12:57:38.837Z,1.90
2022-08-16T12:58:48.614Z,2.00
2022-08-16T12:59:38.591Z,1.80
2022-08-16T13:00:38.497Z,2.20
2022-08-16T13:01:37.979Z,1.90
2022-08-16T13:02:38.094Z,2.20
2022-08-16T13:03:40.608Z,1.70
2022-08-16T13:04:37.954Z,2.20
2022-08-16T13:05:38.121Z,1.80
2022-08-16T13:06:38.235Z,2.00
2022-08-16T13:07:45.049Z,2.00
2022-08-16T13:08:37.954Z,1.70
2022-08-16T13:09:42.362Z,1.90
2022-08-16T13:10:38.942Z,1.60
2022-08-16T13:11:37.895Z,1.80
2022-08-16T13:12:37.912Z,2.20
2022-08-16T13:13:37.865Z,1.80
2022-08-16T13:14:37.851Z,1.90
2022-08-16T13:15:55.594Z,1.70
2022-08-16T13:16:37.833Z,1.50
2022-08-16T13:17:37.812Z,1.70
2022-08-16T13:18:37.844Z,2.00
2022-08-16T13:20:06.482Z,2.20
2022-08-16T13:20:37.793Z,1.90
2022-08-16T13:21:37.783Z,1.80
2022-08-16T13:22:37.827Z,1.70
2022-08-16T13:23:43.672Z,1.80
2022-08-16T13:24:37.752Z,2.00
2022-08-16T13:25:37.728Z,1.60
2022-08-16T13:26:37.721Z,1.90
2022-08-16T13:28:01.680Z,1.80